Latest Weather Observations for Richmond

IDQ60801

Issued at 5:32 am EST Saturday 29 April 2017 (issued every 30 minutes, with the page automatically refreshed every 10 minutes)

About weather observations | Map of weather stations | Latest weather observations for QLD | Other Formats
Station Details ID: 030161 Name: RICHMOND AIRPORT Lat: -20.70 Lon: 143.12 Height: 206.3 m
Data from the previous 72 hours. | See also: Recent months at Richmond
Date/Time
EST
Temp
°C
App
Temp
°C
Dew
Point
°C
Rel
Hum
%
Delta-T
°C
Wind Press
QNH
hPa
Press
MSL
hPa
Rain since
9am
mm
Dir  Spd
km/h
Gust
km/h
Spd
kts
Gust
kts
29/05:30am 7.4 2.5 -3.7 45 4.0 ESE 13 15 7 8 1017.1 1016.0 0.0
29/05:00am 9.1 4.2 -3.4 41 4.6 ESE 13 15 7 8 1017.3 1016.2 0.0
29/04:30am 10.9 6.1 -2.8 38 5.3 ESE 13 19 7 10 1017.1 1016.0 0.0
29/04:00am 11.6 5.6 -2.9 36 5.6 SE 19 24 10 13 1017.2 1016.1 0.0
29/03:30am 11.5 5.9 -2.7 37 5.5 SSE 17 24 9 13 1017.2 1016.1 0.0
29/03:00am 11.3 5.7 -2.8 37 5.4 SE 17 22 9 12 1017.3 1016.2 0.0
29/02:30am 11.3 5.7 -2.8 37 5.4 SE 17 22 9 12 1017.4 1016.3 0.0
29/02:00am 10.0 4.7 -3.6 38 5.1 SSE 15 20 8 11 1017.6 1016.5 0.0
29/01:30am 10.0 4.7 -3.6 38 5.1 SSE 15 20 8 11 1017.8 1016.7 0.0
29/01:00am 11.9 6.2 -3.8 33 6.0 SSE 17 19 9 10 1017.9 1016.8 0.0
29/12:30am 12.9 6.8 -3.8 31 6.4 SSE 19 24 10 13 1018.0 1016.9 0.0
29/12:00am 13.2 7.0 -3.5 31 6.5 SSE 20 26 11 14 1018.2 1017.1 0.0
 
Date/Time
EST
Temp
°C
App
Temp
°C
Dew
Point
°C
Rel
Hum
%
Delta-T
°C
Wind Press
QNH
hPa
Press
MSL
hPa
Rain since
9am
mm
Dir  Spd
km/h
Gust
km/h
Spd
kts
Gust
kts
28/11:30pm 11.6 5.9 -3.7 34 5.8 SSE 17 20 9 11 1018.5 1017.4 0.0
28/11:00pm 12.3 6.6 -3.9 32 6.2 SSE 17 20 9 11 1018.7 1017.6 0.0
28/10:30pm 12.3 7.4 -3.5 33 6.1 SSE 13 17 7 9 1018.9 1017.8 0.0
28/10:00pm 12.5 7.6 -3.7 32 6.2 SSE 13 15 7 8 1018.9 1017.8 0.0
28/09:30pm 11.9 6.1 -4.7 31 6.2 SSE 17 19 9 10 1018.6 1017.5 0.0
28/09:00pm 14.1 9.2 -3.6 29 6.9 SE 13 15 7 8 1018.5 1017.4 0.0
28/08:30pm 14.5 8.5 -3.3 29 7.0 SSE 19 20 10 11 1018.2 1017.1 0.0
28/08:00pm 13.6 7.8 -4.5 28 6.9 SSE 17 19 9 10 1017.9 1016.8 0.0
28/07:30pm 15.6 9.9 -3.8 26 7.7 SSE 17 20 9 11 1017.4 1016.3 0.0
28/07:00pm 16.7 11.0 -3.9 24 8.2 SSE 17 19 9 10 1017.1 1016.0 0.0
28/06:30pm 19.2 13.8 -4.3 20 9.5 SSE 15 19 8 10 1016.7 1015.6 0.0
28/06:00pm 22.2 15.8 -4.8 16 11.2 SSE 20 30 11 16 1016.4 1015.3 0.0
28/05:30pm 23.7 16.6 -4.4 15 11.9 SSE 24 32 13 17 1016.1 1014.9 0.0
28/05:00pm 24.6 17.6 -3.7 15 12.2 SE 24 35 13 19 1016.0 1014.8 0.0
28/04:30pm 25.0 17.5 -4.3 14 12.6 SSE 26 44 14 24 1016.0 1014.8 0.0
28/04:00pm 24.8 17.4 -3.6 15 12.3 SE 26 35 14 19 1016.0 1014.8 0.0
28/03:30pm 25.1 17.5 -2.5 16 12.3 SE 28 37 15 20 1016.0 1014.8 0.0
28/03:00pm 25.6 18.4 -2.1 16 12.4 SSE 26 35 14 19 1016.1 1014.9 0.0
28/02:30pm 25.4 18.9 -2.2 16 12.4 SE 22 39 12 21 1016.4 1015.3 0.0
28/02:00pm 25.8 19.0 -1.9 16 12.5 SE 24 37 13 20 1016.6 1015.5 0.0
28/01:30pm 24.3 17.2 -1.5 18 11.6 SE 26 43 14 23 1017.0 1015.9 0.0
28/01:00pm 23.7 16.9 -2.0 18 11.4 ESE 24 37 13 20 1017.6 1016.5 0.0
28/12:30pm 23.5 16.1 -0.7 20 11.0 ESE 28 37 15 20 1018.1 1017.0 0.0
28/12:00pm 23.1 16.1 -0.4 21 10.7 ESE 26 39 14 21 1018.7 1017.6 0.0
28/11:30am 21.4 13.5 -1.2 22 10.0 ESE 30 46 16 25 1019.3 1018.2 0.0
28/11:00am 21.2 12.8 -0.7 23 9.7 ESE 33 44 18 24 1020.0 1018.8 0.0
28/10:30am 21.0 13.0 0.2 25 9.4 ESE 32 43 17 23 1020.3 1019.1 0.0
28/10:00am 19.2 10.5 -0.2 27 8.5 ESE 35 46 19 25 1020.5 1019.4 0.0
28/09:30am 18.3 10.5 -0.5 28 8.2 ESE 30 41 16 22 1020.6 1019.5 0.0
28/09:00am 17.5 10.5 -0.2 30 7.7 ESE 26 37 14 20 1020.6 1019.5 0.0
28/08:30am 14.9 8.2 -1.2 33 6.7 SE 24 32 13 17 1020.6 1019.5 0.0
28/08:00am 13.3 7.4 -1.1 37 5.9 ESE 20 24 11 13 1020.5 1019.4 0.0
28/07:30am 11.2 5.4 -1.2 42 5.0 SE 19 22 10 12 1020.1 1018.9 0.0
28/07:00am 10.1 4.7 -1.3 45 4.5 ESE 17 20 9 11 1019.8 1018.6 0.0
28/06:30am 9.6 4.2 -1.4 46 4.3 SE 17 20 9 11 1019.4 1018.3 0.0
28/06:00am 10.1 4.7 -1.6 44 4.6 SE 17 24 9 13 1019.3 1018.2 0.0
28/05:30am 9.6 4.6 -1.1 47 4.2 SE 15 20 8 11 1019.0 1017.9 0.0
28/05:00am 10.1 4.3 -1.3 45 4.5 SSE 19 22 10 12 1018.8 1017.7 0.0
28/04:30am 10.0 4.6 -1.4 45 4.5 SSE 17 20 9 11 1018.7 1017.6 0.0
28/04:00am 10.2 4.4 -1.8 43 4.7 SSE 19 22 10 12 1018.6 1017.5 0.0
28/03:30am 11.2 5.4 -1.2 42 5.0 SSE 19 24 10 13 1018.6 1017.5 0.0
28/03:00am 11.4 6.0 -1.4 41 5.1 SSE 17 24 9 13 1018.5 1017.4 0.0
28/02:30am 11.7 6.0 -1.1 41 5.2 SSE 19 22 10 12 1018.5 1017.4 0.0
28/02:00am 12.5 7.5 -1.4 38 5.6 SSE 15 22 8 12 1018.8 1017.7 0.0
28/01:30am 13.2 7.4 -1.2 37 5.9 SSE 19 24 10 13 1018.6 1017.5 0.0
28/01:00am 13.6 7.8 -1.2 36 6.1 SSE 19 24 10 13 1018.7 1017.6 0.0
28/12:30am 12.8 7.1 -0.4 40 5.5 SSE 19 22 10 12 1018.7 1017.6 0.0
28/12:00am 11.1 6.1 -1.0 43 4.9 SSE 15 17 8 9 1018.7 1017.6 0.0
 
Date/Time
EST
Temp
°C
App
Temp
°C
Dew
Point
°C
Rel
Hum
%
Delta-T
°C
Wind Press
QNH
hPa
Press
MSL
hPa
Rain since
9am
mm
Dir  Spd
km/h
Gust
km/h
Spd
kts
Gust
kts
27/11:30pm 11.7 6.4 -0.4 43 5.0 SSE 17 17 9 9 1018.9 1017.8 0.0
27/11:00pm 12.1 7.6 -0.1 43 5.0 SSE 13 17 7 9 1019.0 1017.9 0.0
27/10:30pm 11.9 6.9 -0.9 41 5.2 SSE 15 15 8 8 1019.0 1017.9 0.0
27/10:00pm 13.9 9.0 -0.2 38 5.9 SSE 15 19 8 10 1018.8 1017.7 0.0
27/09:30pm 13.9 8.3 -0.2 38 5.9 SSE 19 19 10 10 1018.7 1017.6 0.0
27/09:00pm 15.0 9.4 -0.3 35 6.5 SSE 19 20 10 11 1018.5 1017.4 0.0
27/08:30pm 16.4 11.2 0.1 33 7.1 SSE 17 20 9 11 1018.3 1017.2 0.0
27/08:00pm 15.9 11.1 0.1 34 6.8 S 15 17 8 9 1018.0 1016.9 0.0
27/07:30pm 17.2 12.4 -0.1 31 7.5 SSE 15 17 8 9 1017.5 1016.4 0.0
27/07:00pm 19.2 14.5 0.8 29 8.3 SSE 15 17 8 9 1017.0 1015.9 0.0
27/06:30pm 21.3 15.8 0.5 25 9.5 SSE 19 20 10 11 1016.6 1015.5 0.0
27/06:00pm 23.3 17.3 1.0 23 10.4 SSE 22 32 12 17 1016.4 1015.3 0.0
27/05:30pm 24.6 17.9 1.5 22 11.0 S 26 35 14 19 1015.9 1014.7 0.0
27/05:00pm 25.5 19.2 1.6 21 11.5 S 24 35 13 19 1015.7 1014.5 0.0
27/04:30pm 26.3 18.9 1.6 20 11.9 S 30 41 16 22 1015.5 1014.3 0.0
27/04:00pm 26.8 20.2 2.0 20 12.1 S 26 35 14 19 1015.4 1014.2 0.0
27/03:30pm 27.0 20.3 1.4 19 12.4 S 26 39 14 21 1015.3 1014.1 0.0
27/03:00pm 26.9 20.2 1.3 19 12.3 SSE 26 37 14 20 1015.2 1014.0 0.0
27/02:30pm 27.5 21.6 3.9 22 12.0 SSE 24 33 13 18 1015.4 1014.2 0.0
27/02:00pm 26.5 20.9 3.7 23 11.4 S 22 35 12 19 1015.9 1014.7 0.0
27/01:30pm 26.7 20.9 4.5 24 11.3 SSE 24 33 13 18 1016.3 1015.2 0.0
27/01:00pm 26.5 19.9 4.3 24 11.3 S 28 39 15 21 1016.6 1015.5 0.0
27/12:30pm 26.5 19.8 5.5 26 10.9 S 30 39 16 21 1017.1 1016.0 0.0
27/12:00pm 25.7 19.7 5.3 27 10.5 SSE 26 35 14 19 1017.8 1016.7 0.0
27/11:30am 25.4 19.6 6.1 29 10.1 S 26 37 14 20 1018.2 1017.1 0.0
27/11:00am 24.8 18.2 6.1 30 9.7 SSE 30 37 16 20 1018.7 1017.6 0.0
27/10:30am 23.3 16.2 5.7 32 9.0 SSE 32 44 17 24 1019.0 1017.9 0.0
27/10:00am 22.9 16.2 5.8 33 8.7 SE 30 39 16 21 1019.0 1017.9 0.0
27/09:30am 22.1 15.4 5.5 34 8.4 SE 30 37 16 20 1019.0 1017.9 0.0
27/09:00am 20.9 13.2 5.3 36 7.8 SE 35 43 19 23 1018.8 1017.7 0.0
27/08:30am 19.9 12.5 4.8 37 7.4 SSE 33 44 18 24 1018.6 1017.5 0.0
27/08:00am 18.9 12.3 4.3 38 7.0 SSE 28 35 15 19 1018.5 1017.4 0.0
27/07:30am 18.1 12.9 3.6 38 6.9 SSE 20 26 11 14 1018.3 1017.2 0.0
27/07:00am 17.3 12.7 3.6 40 6.4 SSE 17 20 9 11 1017.9 1016.8 0.0
27/06:30am 16.8 13.0 3.8 42 6.1 SE 13 17 7 9 1017.6 1016.5 0.0
27/06:00am 17.0 13.3 4.7 44 5.9 SE 13 15 7 8 1017.2 1016.1 0.0
27/05:30am 16.3 13.0 4.7 46 5.5 SSE 11 17 6 9 1016.8 1015.7 0.0
27/05:00am 17.1 13.8 4.4 43 6.0 SE 11 13 6 7 1016.7 1015.6 0.0
27/04:30am 18.1 14.5 5.0 42 6.4 SE 13 17 7 9 1016.6 1015.5 0.0
27/04:00am 17.5 14.3 5.1 44 6.0 SSE 11 13 6 7 1016.7 1015.6 0.0
27/03:30am 17.6 14.3 4.6 42 6.2 SSE 11 13 6 7 1016.6 1015.5 0.0
27/03:00am 19.3 15.1 3.9 36 7.4 SSE 15 19 8 10 1016.5 1015.4 0.0
27/02:30am 21.2 16.1 4.3 33 8.3 S 20 28 11 15 1016.3 1015.2 0.0
27/02:00am 21.7 16.7 4.7 33 8.4 S 20 28 11 15 1016.2 1015.1 0.0
27/01:30am 21.7 16.8 5.2 34 8.3 S 20 28 11 15 1016.2 1015.1 0.0
27/01:00am 22.4 17.2 5.4 33 8.6 S 22 28 12 15 1016.1 1014.9 0.0
27/12:30am 22.1 17.4 5.1 33 8.5 S 19 24 10 13 1016.1 1014.9 0.0
27/12:00am 22.8 17.6 5.3 32 8.8 S 22 32 12 17 1016.0 1014.8 0.0
 
Date/Time
EST
Temp
°C
App
Temp
°C
Dew
Point
°C
Rel
Hum
%
Delta-T
°C
Wind Press
QNH
hPa
Press
MSL
hPa
Rain since
9am
mm
Dir  Spd
km/h
Gust
km/h
Spd
kts
Gust
kts
26/11:30pm 24.1 17.8 5.5 30 9.5 S 28 37 15 20 1015.9 1014.7 0.0
26/11:00pm 23.9 18.7 5.3 30 9.5 SSW 22 32 12 17 1015.9 1014.7 0.0
26/10:30pm 23.2 18.9 5.2 31 9.1 SSW 17 22 9 12 1015.8 1014.6 0.0
26/10:00pm 24.2 19.4 5.5 30 9.6 SSW 20 26 11 14 1015.6 1014.4 0.0
26/09:30pm 24.8 20.1 6.1 30 9.7 S 20 26 11 14 1015.4 1014.2 0.0
26/09:00pm 25.6 20.7 6.8 30 9.9 SSW 22 28 12 15 1015.2 1014.0 0.0
26/08:30pm 26.2 21.9 7.7 31 10.0 SSW 20 24 11 13 1014.6 1013.4 0.0
26/08:00pm 27.5 23.0 8.4 30 10.5 SSW 22 30 12 16 1013.9 1012.8 0.0
26/07:30pm 27.9 23.9 10.6 34 9.9 SSW 22 28 12 15 1013.4 1012.3 0.0
26/07:00pm 28.7 24.6 11.3 34 10.1 SSW 24 30 13 16 1012.9 1011.8 0.0
26/06:30pm 29.4 25.6 12.3 34 10.1 SSW 24 30 13 16 1012.5 1011.4 0.0
26/06:00pm 30.4 25.2 12.8 34 10.5 SSW 32 39 17 21 1012.1 1011.0 0.0
26/05:30pm 31.6 26.8 12.9 32 11.2 SSW 30 39 16 21 1011.6 1010.4 0.0
26/05:00pm 32.7 28.7 12.9 30 12.0 S 26 35 14 19 1011.5 1010.3 0.0
26/04:30pm 33.2 29.9 12.8 29 12.3 SSW 22 35 12 19 1011.2 1010.0 0.0
26/04:00pm 33.6 29.9 12.6 28 12.7 SSW 24 39 13 21 1011.2 1010.0 0.0
26/03:30pm 34.1 30.7 12.4 26 13.1 SSW 22 37 12 20 1011.2 1010.0 0.0
26/03:00pm 34.0 30.4 12.9 28 12.8 SSW 24 32 13 17 1011.3 1010.1 0.0
26/02:30pm 34.4 31.4 12.7 27 13.1 S 20 32 11 17 1011.5 1010.3 0.0
26/02:00pm 34.6 31.7 12.3 26 13.4 SW 19 32 10 17 1011.7 1010.5 0.0
26/01:30pm 35.0 31.6 11.4 24 14.1 SW 20 32 11 17 1012.3 1011.2 0.0
26/01:00pm 33.9 31.0 11.1 25 13.5 SW 17 26 9 14 1012.7 1011.6 0.0
26/12:30pm 33.7 31.5 12.1 27 12.9 SW 15 24 8 13 1013.3 1012.2 0.0
26/12:00pm 33.1 30.4 11.6 27 12.7 SW 17 28 9 15 1013.9 1012.8 0.0
26/11:30am 31.5 28.7 11.3 29 11.8 WSW 17 24 9 13 1014.3 1013.2 0.0
26/11:00am 30.8 28.0 11.2 30 11.4 W 17 26 9 14 1014.8 1013.6 0.0
26/10:30am 30.5 26.9 11.9 31 11.0 W 22 32 12 17 1015.2 1014.0 0.0
26/10:00am 30.0 26.0 12.9 35 10.2 W 26 33 14 18 1015.3 1014.1 0.0
26/09:30am 28.9 26.4 13.6 39 9.2 W 19 30 10 16 1015.4 1014.2 0.0
26/09:00am 27.3 26.2 14.3 45 7.8 NW 13 19 7 10 1015.1 1013.9 0.0
26/08:30am 24.4 24.2 13.0 49 6.7 W 6 9 3 5 1015.0 1013.8 0.0
26/08:00am 22.1 22.3 13.2 57 5.2 NNW 4 7 2 4 1014.8 1013.6 0.0
26/07:30am 18.6 19.1 11.7 64 3.8 CALM 0 0 0 0 1014.5 1013.3 0.0
26/07:00am 17.7 16.9 11.0 65 3.7 NNE 6 7 3 4 1014.0 1012.9 0.0
26/06:30am 18.9 17.1 12.2 65 3.8 NNE 13 15 7 8 1013.4 1012.3 0.0
26/06:00am 19.3 17.1 12.1 63 4.0 NNE 15 19 8 10 1013.1 1012.0 0.0

Other Formats:

Comma delimited format used in spreadsheet applications
http://www.bom.gov.au/fwo/IDQ60801/IDQ60801.94341.axf

JavaScript Object Notation format (JSON) in row-major order
http://www.bom.gov.au/fwo/IDQ60801/IDQ60801.94341.json